sensor_id;sensor_type;location;lat;lon;timestamp;P1;durP1;ratioP1;P2;durP2;ratioP2
15498;SDS011;7851;52.260;6.030;2023-07-16T00:04:15;5.5;;;4.7;;
15498;SDS011;7851;52.260;6.030;2023-07-16T00:04:27;11.1;;;6.3;;
15498;SDS011;7851;52.260;6.030;2023-07-16T00:05:27;6.3;;;5.7;;
15498;SDS011;7851;52.260;6.030;2023-07-16T00:06:27;7.8;;;5.9;;
15498;SDS011;7851;52.260;6.030;2023-07-16T00:07:27;10;;;5.6;;
15498;SDS011;7851;52.260;6.030;2023-07-16T00:08:27;7;;;5.2;;
15498;SDS011;7851;52.260;6.030;2023-07-16T00:09:27;8.5;;;5.7;;
15498;SDS011;7851;52.260;6.030;2023-07-16T00:10:27;9.2;;;6.2;;
15498;SDS011;7851;52.260;6.030;2023-07-16T00:11:27;11.3;;;5.4;;
15498;SDS011;7851;52.260;6.030;2023-07-16T00:12:27;5.2;;;4.7;;
15498;SDS011;7851;52.260;6.030;2023-07-16T00:13:27;11.3;;;4.6;;
15498;SDS011;7851;52.260;6.030;2023-07-16T00:14:27;6.3;;;4.5;;
15498;SDS011;7851;52.260;6.030;2023-07-16T00:15:27;7.8;;;4.4;;
15498;SDS011;7851;52.260;6.030;2023-07-16T00:16:27;5.8;;;4.2;;
15498;SDS011;7851;52.260;6.030;2023-07-16T00:17:27;5.2;;;4.1;;
15498;SDS011;7851;52.260;6.030;2023-07-16T00:18:27;4.4;;;3.9;;
15498;SDS011;7851;52.260;6.030;2023-07-16T00:19:27;6.3;;;3.6;;
15498;SDS011;7851;52.260;6.030;2023-07-16T00:20:27;4.8;;;4;;
15498;SDS011;7851;52.260;6.030;2023-07-16T00:21:27;6.4;;;3.9;;
15498;SDS011;7851;52.260;6.030;2023-07-16T00:22:27;5.2;;;3.6;;
15498;SDS011;7851;52.260;6.030;2023-07-16T00:23:27;5.1;;;3.4;;
15498;SDS011;7851;52.260;6.030;2023-07-16T00:24:27;3.7;;;3;;
15498;SDS011;7851;52.260;6.030;2023-07-16T00:25:27;4;;;3.5;;
15498;SDS011;7851;52.260;6.030;2023-07-16T00:26:27;10.2;;;3;;
15498;SDS011;7851;52.260;6.030;2023-07-16T00:27:27;3.7;;;2.8;;
15498;SDS011;7851;52.260;6.030;2023-07-16T00:28:27;2.7;;;2.2;;
15498;SDS011;7851;52.260;6.030;2023-07-16T00:29:27;2.9;;;2.1;;
15498;SDS011;7851;52.260;6.030;2023-07-16T00:30:27;2.4;;;2.2;;
15498;SDS011;7851;52.260;6.030;2023-07-16T00:31:27;2.9;;;2.5;;
15498;SDS011;7851;52.260;6.030;2023-07-16T00:32:27;2.6;;;2.3;;
15498;SDS011;7851;52.260;6.030;2023-07-16T00:33:27;3;;;2.2;;
15498;SDS011;7851;52.260;6.030;2023-07-16T00:34:27;2;;;1.9;;
15498;SDS011;7851;52.260;6.030;2023-07-16T00:35:27;2.3;;;2.1;;
15498;SDS011;7851;52.260;6.030;2023-07-16T00:36:27;2.3;;;2.1;;
15498;SDS011;7851;52.260;6.030;2023-07-16T00:37:27;7.1;;;2.4;;
15498;SDS011;7851;52.260;6.030;2023-07-16T00:38:27;4;;;2.4;;
15498;SDS011;7851;52.260;6.030;2023-07-16T00:39:27;2.4;;;1.8;;
15498;SDS011;7851;52.260;6.030;2023-07-16T00:40:27;8.2;;;2;;
15498;SDS011;7851;52.260;6.030;2023-07-16T00:41:27;3.7;;;2.6;;
15498;SDS011;7851;52.260;6.030;2023-07-16T00:42:27;2.1;;;1.9;;
15498;SDS011;7851;52.260;6.030;2023-07-16T00:43:27;2.7;;;2;;
15498;SDS011;7851;52.260;6.030;2023-07-16T00:44:27;2.6;;;2;;
15498;SDS011;7851;52.260;6.030;2023-07-16T00:45:27;3.9;;;2.3;;
15498;SDS011;7851;52.260;6.030;2023-07-16T00:46:27;3.9;;;2.3;;
15498;SDS011;7851;52.260;6.030;2023-07-16T00:47:27;2.2;;;2.1;;
15498;SDS011;7851;52.260;6.030;2023-07-16T00:48:27;3.2;;;1.8;;
15498;SDS011;7851;52.260;6.030;2023-07-16T00:49:27;2.5;;;2.3;;
15498;SDS011;7851;52.260;6.030;2023-07-16T00:50:27;2.4;;;1.9;;
15498;SDS011;7851;52.260;6.030;2023-07-16T00:51:27;4.8;;;2.3;;
15498;SDS011;7851;52.260;6.030;2023-07-16T00:52:27;3.5;;;2.4;;
15498;SDS011;7851;52.260;6.030;2023-07-16T00:53:27;3.1;;;2.1;;
15498;SDS011;7851;52.260;6.030;2023-07-16T00:54:27;5.7;;;2.6;;
15498;SDS011;7851;52.260;6.030;2023-07-16T00:55:28;3.8;;;2;;
15498;SDS011;7851;52.260;6.030;2023-07-16T00:56:27;7.4;;;2.2;;
15498;SDS011;7851;52.260;6.030;2023-07-16T00:57:27;5.2;;;2.7;;
15498;SDS011;7851;52.260;6.030;2023-07-16T00:58:27;5.2;;;1.7;;
15498;SDS011;7851;52.260;6.030;2023-07-16T00:59:27;4.4;;;2.5;;
15498;SDS011;7851;52.260;6.030;2023-07-16T01:00:27;4.6;;;2.2;;
15498;SDS011;7851;52.260;6.030;2023-07-16T01:01:27;7.1;;;2.5;;
15498;SDS011;7851;52.260;6.030;2023-07-16T01:02:27;3.3;;;2.4;;
15498;SDS011;7851;52.260;6.030;2023-07-16T01:03:27;5.2;;;2.1;;
15498;SDS011;7851;52.260;6.030;2023-07-16T01:04:27;2.7;;;2.3;;
15498;SDS011;7851;52.260;6.030;2023-07-16T01:05:28;3;;;2.3;;
15498;SDS011;7851;52.260;6.030;2023-07-16T01:06:29;2.8;;;2.2;;
15498;SDS011;7851;52.260;6.030;2023-07-16T01:07:27;2.2;;;2.1;;
15498;SDS011;7851;52.260;6.030;2023-07-16T01:08:29;3.4;;;2;;
15498;SDS011;7851;52.260;6.030;2023-07-16T01:09:27;2.8;;;2;;
15498;SDS011;7851;52.260;6.030;2023-07-16T01:10:28;4.6;;;2.3;;
15498;SDS011;7851;52.260;6.030;2023-07-16T01:11:27;2.3;;;2.1;;
15498;SDS011;7851;52.260;6.030;2023-07-16T01:12:27;3.8;;;2.2;;
15498;SDS011;7851;52.260;6.030;2023-07-16T01:13:27;3.6;;;2.6;;
15498;SDS011;7851;52.260;6.030;2023-07-16T01:14:27;3.5;;;2.2;;
15498;SDS011;7851;52.260;6.030;2023-07-16T01:15:27;2;;;1.8;;
15498;SDS011;7851;52.260;6.030;2023-07-16T01:16:27;2.3;;;2;;
15498;SDS011;7851;52.260;6.030;2023-07-16T01:17:27;2.5;;;2.1;;
15498;SDS011;7851;52.260;6.030;2023-07-16T01:18:27;4.5;;;2.4;;
15498;SDS011;7851;52.260;6.030;2023-07-16T01:19:27;2.8;;;2.5;;
15498;SDS011;7851;52.260;6.030;2023-07-16T01:20:27;3.4;;;2.5;;
15498;SDS011;7851;52.260;6.030;2023-07-16T01:21:28;4.4;;;2.7;;
15498;SDS011;7851;52.260;6.030;2023-07-16T01:22:31;6.1;;;3.5;;
15498;SDS011;7851;52.260;6.030;2023-07-16T01:23:35;6.9;;;5.1;;
15498;SDS011;7851;52.260;6.030;2023-07-16T01:24:33;6.3;;;5;;
15498;SDS011;7851;52.260;6.030;2023-07-16T01:25:48;5.6;;;4.9;;
15498;SDS011;7851;52.260;6.030;2023-07-16T01:26:32;7.8;;;5.9;;
15498;SDS011;7851;52.260;6.030;2023-07-16T01:27:31;7.5;;;5.9;;
15498;SDS011;7851;52.260;6.030;2023-07-16T01:28:33;8.9;;;6.1;;
15498;SDS011;7851;52.260;6.030;2023-07-16T01:29:28;8.8;;;6.2;;
15498;SDS011;7851;52.260;6.030;2023-07-16T01:30:27;10;;;6.2;;
15498;SDS011;7851;52.260;6.030;2023-07-16T01:31:27;6.7;;;5.1;;
15498;SDS011;7851;52.260;6.030;2023-07-16T01:32:27;11;;;6.6;;
15498;SDS011;7851;52.260;6.030;2023-07-16T01:33:27;6.4;;;5.7;;
15498;SDS011;7851;52.260;6.030;2023-07-16T01:34:28;8.6;;;6;;
15498;SDS011;7851;52.260;6.030;2023-07-16T01:35:27;7.8;;;5.5;;
15498;SDS011;7851;52.260;6.030;2023-07-16T01:36:27;8.3;;;5.2;;
15498;SDS011;7851;52.260;6.030;2023-07-16T01:37:27;6.3;;;5.2;;
15498;SDS011;7851;52.260;6.030;2023-07-16T01:38:27;6.7;;;4.5;;
15498;SDS011;7851;52.260;6.030;2023-07-16T01:39:27;8.6;;;5.1;;
15498;SDS011;7851;52.260;6.030;2023-07-16T01:40:27;5.6;;;4.9;;
15498;SDS011;7851;52.260;6.030;2023-07-16T01:41:27;7.3;;;4.4;;
15498;SDS011;7851;52.260;6.030;2023-07-16T01:42:27;8.5;;;5.2;;
15498;SDS011;7851;52.260;6.030;2023-07-16T01:43:27;6.6;;;4.2;;
15498;SDS011;7851;52.260;6.030;2023-07-16T01:44:27;8.3;;;4.3;;
15498;SDS011;7851;52.260;6.030;2023-07-16T01:45:27;4.9;;;3.7;;
15498;SDS011;7851;52.260;6.030;2023-07-16T01:46:27;3.6;;;3.2;;
15498;SDS011;7851;52.260;6.030;2023-07-16T01:47:29;7;;;3.4;;
15498;SDS011;7851;52.260;6.030;2023-07-16T01:48:29;3.7;;;3.3;;
15498;SDS011;7851;52.260;6.030;2023-07-16T01:49:27;5.2;;;2.9;;
15498;SDS011;7851;52.260;6.030;2023-07-16T01:50:27;6.4;;;2.7;;
15498;SDS011;7851;52.260;6.030;2023-07-16T01:51:27;5.9;;;3;;
15498;SDS011;7851;52.260;6.030;2023-07-16T01:52:27;5.6;;;3.2;;
15498;SDS011;7851;52.260;6.030;2023-07-16T01:53:27;6.1;;;2.9;;
15498;SDS011;7851;52.260;6.030;2023-07-16T01:54:27;3.9;;;3.1;;
15498;SDS011;7851;52.260;6.030;2023-07-16T01:55:27;5.3;;;2.9;;
15498;SDS011;7851;52.260;6.030;2023-07-16T01:56:27;3.5;;;3;;
15498;SDS011;7851;52.260;6.030;2023-07-16T01:57:27;4.2;;;2.6;;
15498;SDS011;7851;52.260;6.030;2023-07-16T01:58:27;5.1;;;2.9;;
15498;SDS011;7851;52.260;6.030;2023-07-16T01:59:27;6.9;;;3.4;;
15498;SDS011;7851;52.260;6.030;2023-07-16T02:00:27;3;;;2.4;;
15498;SDS011;7851;52.260;6.030;2023-07-16T02:01:27;4.3;;;2.4;;
15498;SDS011;7851;52.260;6.030;2023-07-16T02:02:27;2.6;;;2.4;;
15498;SDS011;7851;52.260;6.030;2023-07-16T02:03:27;3.5;;;2.4;;
15498;SDS011;7851;52.260;6.030;2023-07-16T02:04:27;3;;;2.6;;
15498;SDS011;7851;52.260;6.030;2023-07-16T02:05:27;5;;;2.2;;
15498;SDS011;7851;52.260;6.030;2023-07-16T02:06:27;3.4;;;2.6;;
15498;SDS011;7851;52.260;6.030;2023-07-16T02:07:27;4.5;;;2.6;;
15498;SDS011;7851;52.260;6.030;2023-07-16T02:08:27;9.3;;;2.7;;
15498;SDS011;7851;52.260;6.030;2023-07-16T02:09:28;3;;;2.3;;
15498;SDS011;7851;52.260;6.030;2023-07-16T02:10:27;2.4;;;2.2;;
15498;SDS011;7851;52.260;6.030;2023-07-16T02:11:28;3.8;;;2.4;;
15498;SDS011;7851;52.260;6.030;2023-07-16T02:12:27;3.2;;;2.5;;
15498;SDS011;7851;52.260;6.030;2023-07-16T02:13:29;3.6;;;2.6;;
15498;SDS011;7851;52.260;6.030;2023-07-16T02:14:27;2.8;;;2.5;;
15498;SDS011;7851;52.260;6.030;2023-07-16T02:15:27;4.3;;;2.2;;
15498;SDS011;7851;52.260;6.030;2023-07-16T02:16:27;4.6;;;2.9;;
15498;SDS011;7851;52.260;6.030;2023-07-16T02:17:27;5.5;;;2.4;;
15498;SDS011;7851;52.260;6.030;2023-07-16T02:18:27;3;;;2.3;;
15498;SDS011;7851;52.260;6.030;2023-07-16T02:19:27;3.2;;;2.5;;
15498;SDS011;7851;52.260;6.030;2023-07-16T02:20:27;4.2;;;2.3;;
15498;SDS011;7851;52.260;6.030;2023-07-16T02:21:27;4.9;;;2.6;;
15498;SDS011;7851;52.260;6.030;2023-07-16T02:22:27;3;;;2.5;;
15498;SDS011;7851;52.260;6.030;2023-07-16T02:23:27;6.7;;;2.6;;
15498;SDS011;7851;52.260;6.030;2023-07-16T02:24:27;2.9;;;2.2;;
15498;SDS011;7851;52.260;6.030;2023-07-16T02:25:27;4.5;;;2.1;;
15498;SDS011;7851;52.260;6.030;2023-07-16T02:26:27;3.5;;;2.5;;
15498;SDS011;7851;52.260;6.030;2023-07-16T02:27:27;2.9;;;2.6;;
15498;SDS011;7851;52.260;6.030;2023-07-16T02:28:27;3.7;;;2.8;;
15498;SDS011;7851;52.260;6.030;2023-07-16T02:29:27;3.2;;;2.5;;
15498;SDS011;7851;52.260;6.030;2023-07-16T02:30:27;4.8;;;2.6;;
15498;SDS011;7851;52.260;6.030;2023-07-16T02:31:27;3.4;;;2.3;;
15498;SDS011;7851;52.260;6.030;2023-07-16T02:32:27;2.5;;;2.3;;
15498;SDS011;7851;52.260;6.030;2023-07-16T02:33:27;8.4;;;2.7;;
15498;SDS011;7851;52.260;6.030;2023-07-16T02:34:27;7.2;;;2.5;;
15498;SDS011;7851;52.260;6.030;2023-07-16T02:35:27;3.1;;;2.8;;
15498;SDS011;7851;52.260;6.030;2023-07-16T02:36:27;8.1;;;2.9;;
15498;SDS011;7851;52.260;6.030;2023-07-16T02:37:27;4.7;;;2.7;;
15498;SDS011;7851;52.260;6.030;2023-07-16T02:38:27;2.7;;;2.5;;
15498;SDS011;7851;52.260;6.030;2023-07-16T02:39:27;9.2;;;2.9;;
15498;SDS011;7851;52.260;6.030;2023-07-16T02:40:27;3;;;2.6;;
15498;SDS011;7851;52.260;6.030;2023-07-16T02:41:27;2.9;;;2.4;;
15498;SDS011;7851;52.260;6.030;2023-07-16T02:42:27;3.4;;;2.7;;
15498;SDS011;7851;52.260;6.030;2023-07-16T02:43:27;2.8;;;2.6;;
15498;SDS011;7851;52.260;6.030;2023-07-16T02:44:27;7.2;;;2.9;;
15498;SDS011;7851;52.260;6.030;2023-07-16T02:45:27;6.7;;;2.9;;
15498;SDS011;7851;52.260;6.030;2023-07-16T02:46:27;7.5;;;3.5;;
15498;SDS011;7851;52.260;6.030;2023-07-16T02:47:27;4.8;;;2.7;;
15498;SDS011;7851;52.260;6.030;2023-07-16T02:48:27;4.6;;;2.8;;
15498;SDS011;7851;52.260;6.030;2023-07-16T02:49:27;3;;;2.5;;
15498;SDS011;7851;52.260;6.030;2023-07-16T02:50:27;4.6;;;2.6;;
15498;SDS011;7851;52.260;6.030;2023-07-16T02:51:27;5.4;;;2.6;;
15498;SDS011;7851;52.260;6.030;2023-07-16T02:52:27;7.7;;;2.6;;
15498;SDS011;7851;52.260;6.030;2023-07-16T02:53:27;8.7;;;2.7;;
15498;SDS011;7851;52.260;6.030;2023-07-16T02:54:27;4.6;;;3.3;;
15498;SDS011;7851;52.260;6.030;2023-07-16T02:55:27;5.9;;;3.1;;
15498;SDS011;7851;52.260;6.030;2023-07-16T02:56:27;3.4;;;2.9;;
15498;SDS011;7851;52.260;6.030;2023-07-16T02:57:28;7.1;;;3;;
15498;SDS011;7851;52.260;6.030;2023-07-16T02:58:27;6.8;;;2.4;;
15498;SDS011;7851;52.260;6.030;2023-07-16T02:59:27;8.3;;;2.8;;
15498;SDS011;7851;52.260;6.030;2023-07-16T03:00:27;4.1;;;2.4;;
15498;SDS011;7851;52.260;6.030;2023-07-16T03:01:27;6.5;;;3.1;;
15498;SDS011;7851;52.260;6.030;2023-07-16T03:02:27;4.3;;;2.9;;
15498;SDS011;7851;52.260;6.030;2023-07-16T03:03:27;5.2;;;3.1;;
15498;SDS011;7851;52.260;6.030;2023-07-16T03:04:29;4.5;;;2.6;;
15498;SDS011;7851;52.260;6.030;2023-07-16T03:05:28;5.4;;;2.7;;
15498;SDS011;7851;52.260;6.030;2023-07-16T03:06:27;3.6;;;2.6;;
15498;SDS011;7851;52.260;6.030;2023-07-16T03:07:27;6.4;;;2.8;;
15498;SDS011;7851;52.260;6.030;2023-07-16T03:08:27;8.8;;;3;;
15498;SDS011;7851;52.260;6.030;2023-07-16T03:09:27;4.7;;;3.1;;
15498;SDS011;7851;52.260;6.030;2023-07-16T03:10:27;4.5;;;2.6;;
15498;SDS011;7851;52.260;6.030;2023-07-16T03:11:27;6.2;;;2.9;;
15498;SDS011;7851;52.260;6.030;2023-07-16T03:12:27;4.2;;;2.5;;
15498;SDS011;7851;52.260;6.030;2023-07-16T03:13:27;3.5;;;2.5;;
15498;SDS011;7851;52.260;6.030;2023-07-16T03:14:27;4.4;;;2.4;;
15498;SDS011;7851;52.260;6.030;2023-07-16T03:15:27;5.9;;;2.7;;
15498;SDS011;7851;52.260;6.030;2023-07-16T03:16:27;2.5;;;2.3;;
15498;SDS011;7851;52.260;6.030;2023-07-16T03:17:27;5.8;;;2.5;;
15498;SDS011;7851;52.260;6.030;2023-07-16T03:18:27;6.6;;;2.9;;
15498;SDS011;7851;52.260;6.030;2023-07-16T03:19:27;4.1;;;2.9;;
15498;SDS011;7851;52.260;6.030;2023-07-16T03:20:27;3.7;;;2.8;;
15498;SDS011;7851;52.260;6.030;2023-07-16T03:21:27;3.6;;;2.7;;
15498;SDS011;7851;52.260;6.030;2023-07-16T03:22:27;4;;;2.7;;
15498;SDS011;7851;52.260;6.030;2023-07-16T03:23:27;12.6;;;3.2;;
15498;SDS011;7851;52.260;6.030;2023-07-16T03:24:27;4.7;;;2.4;;
15498;SDS011;7851;52.260;6.030;2023-07-16T03:25:27;4.8;;;2.8;;
15498;SDS011;7851;52.260;6.030;2023-07-16T03:26:27;7.1;;;2.6;;
15498;SDS011;7851;52.260;6.030;2023-07-16T03:27:27;5.2;;;3.1;;
15498;SDS011;7851;52.260;6.030;2023-07-16T03:28:27;5;;;3;;
15498;SDS011;7851;52.260;6.030;2023-07-16T03:29:27;4.6;;;2.7;;
15498;SDS011;7851;52.260;6.030;2023-07-16T03:30:27;5.7;;;3.2;;
15498;SDS011;7851;52.260;6.030;2023-07-16T03:31:27;3.9;;;2.5;;
15498;SDS011;7851;52.260;6.030;2023-07-16T03:32:27;10.3;;;2.7;;
15498;SDS011;7851;52.260;6.030;2023-07-16T03:33:27;3.7;;;2.8;;
15498;SDS011;7851;52.260;6.030;2023-07-16T03:34:27;3;;;2.7;;
15498;SDS011;7851;52.260;6.030;2023-07-16T03:35:27;3.8;;;2.8;;
15498;SDS011;7851;52.260;6.030;2023-07-16T03:36:27;2.7;;;2.5;;
15498;SDS011;7851;52.260;6.030;2023-07-16T03:37:27;6;;;3.2;;
15498;SDS011;7851;52.260;6.030;2023-07-16T03:38:27;3.8;;;2.7;;
15498;SDS011;7851;52.260;6.030;2023-07-16T03:39:27;3.9;;;2.9;;
15498;SDS011;7851;52.260;6.030;2023-07-16T03:40:27;3.5;;;2.4;;
15498;SDS011;7851;52.260;6.030;2023-07-16T03:41:27;3.1;;;2.4;;
15498;SDS011;7851;52.260;6.030;2023-07-16T03:42:27;4.1;;;2.8;;
15498;SDS011;7851;52.260;6.030;2023-07-16T03:43:27;5;;;3.1;;
15498;SDS011;7851;52.260;6.030;2023-07-16T03:44:28;3.5;;;2.6;;
15498;SDS011;7851;52.260;6.030;2023-07-16T03:45:27;3.6;;;2.8;;
15498;SDS011;7851;52.260;6.030;2023-07-16T03:46:27;3.3;;;2.7;;
15498;SDS011;7851;52.260;6.030;2023-07-16T03:47:27;3.3;;;2.8;;
15498;SDS011;7851;52.260;6.030;2023-07-16T03:48:27;4.6;;;2.5;;
15498;SDS011;7851;52.260;6.030;2023-07-16T03:49:27;6.7;;;3.3;;
15498;SDS011;7851;52.260;6.030;2023-07-16T03:50:27;6.7;;;3;;
15498;SDS011;7851;52.260;6.030;2023-07-16T03:51:27;6;;;3;;
15498;SDS011;7851;52.260;6.030;2023-07-16T03:52:27;3.1;;;2.6;;
15498;SDS011;7851;52.260;6.030;2023-07-16T03:53:27;3.4;;;2.6;;
15498;SDS011;7851;52.260;6.030;2023-07-16T03:54:27;3.5;;;2.8;;
15498;SDS011;7851;52.260;6.030;2023-07-16T03:55:27;11;;;2.9;;
15498;SDS011;7851;52.260;6.030;2023-07-16T03:56:27;7.5;;;2.6;;
15498;SDS011;7851;52.260;6.030;2023-07-16T03:57:27;8.4;;;3.1;;
15498;SDS011;7851;52.260;6.030;2023-07-16T03:58:27;8.5;;;2.7;;
15498;SDS011;7851;52.260;6.030;2023-07-16T03:59:27;4.4;;;2.8;;
15498;SDS011;7851;52.260;6.030;2023-07-16T04:00:27;8.2;;;3.3;;
15498;SDS011;7851;52.260;6.030;2023-07-16T04:01:27;7.9;;;2.6;;
15498;SDS011;7851;52.260;6.030;2023-07-16T04:02:27;3.8;;;2.8;;
15498;SDS011;7851;52.260;6.030;2023-07-16T04:03:27;3.3;;;2.7;;
15498;SDS011;7851;52.260;6.030;2023-07-16T04:04:27;3.5;;;2.3;;
15498;SDS011;7851;52.260;6.030;2023-07-16T04:05:27;5.9;;;3;;
15498;SDS011;7851;52.260;6.030;2023-07-16T04:06:27;5.7;;;2.4;;
15498;SDS011;7851;52.260;6.030;2023-07-16T04:07:27;3;;;2.6;;
15498;SDS011;7851;52.260;6.030;2023-07-16T04:08:27;3.6;;;2.7;;
15498;SDS011;7851;52.260;6.030;2023-07-16T04:09:27;2.7;;;2.5;;
15498;SDS011;7851;52.260;6.030;2023-07-16T04:10:27;4.6;;;2.4;;
15498;SDS011;7851;52.260;6.030;2023-07-16T04:11:27;4.6;;;2.7;;
15498;SDS011;7851;52.260;6.030;2023-07-16T04:12:27;3.9;;;2.6;;
15498;SDS011;7851;52.260;6.030;2023-07-16T04:13:27;3;;;2.5;;
15498;SDS011;7851;52.260;6.030;2023-07-16T04:14:27;3.1;;;2.6;;
15498;SDS011;7851;52.260;6.030;2023-07-16T04:15:27;3.4;;;2.7;;
15498;SDS011;7851;52.260;6.030;2023-07-16T04:16:27;3.9;;;2.6;;
15498;SDS011;7851;52.260;6.030;2023-07-16T04:17:27;4.5;;;2.6;;
15498;SDS011;7851;52.260;6.030;2023-07-16T04:18:27;9.4;;;2.8;;
15498;SDS011;7851;52.260;6.030;2023-07-16T04:19:27;3.8;;;2.5;;
15498;SDS011;7851;52.260;6.030;2023-07-16T04:20:27;6.4;;;2.8;;
15498;SDS011;7851;52.260;6.030;2023-07-16T04:21:27;3.3;;;2.9;;
15498;SDS011;7851;52.260;6.030;2023-07-16T04:22:27;2.9;;;2.7;;
15498;SDS011;7851;52.260;6.030;2023-07-16T04:23:27;3.1;;;2.8;;
15498;SDS011;7851;52.260;6.030;2023-07-16T04:24:27;2.9;;;2.6;;
15498;SDS011;7851;52.260;6.030;2023-07-16T04:25:27;4.5;;;2.6;;
15498;SDS011;7851;52.260;6.030;2023-07-16T04:26:27;6.6;;;2.9;;
15498;SDS011;7851;52.260;6.030;2023-07-16T04:27:27;5.3;;;3.3;;
15498;SDS011;7851;52.260;6.030;2023-07-16T04:28:27;4.1;;;2.6;;
15498;SDS011;7851;52.260;6.030;2023-07-16T04:29:27;3.5;;;2.6;;
15498;SDS011;7851;52.260;6.030;2023-07-16T04:30:27;6.3;;;2.8;;
15498;SDS011;7851;52.260;6.030;2023-07-16T04:31:27;2.8;;;2.5;;
15498;SDS011;7851;52.260;6.030;2023-07-16T04:32:27;2.8;;;2.6;;
15498;SDS011;7851;52.260;6.030;2023-07-16T04:33:27;2.5;;;2.4;;
15498;SDS011;7851;52.260;6.030;2023-07-16T04:34:27;4.7;;;3;;
15498;SDS011;7851;52.260;6.030;2023-07-16T04:35:27;2.9;;;2.7;;
15498;SDS011;7851;52.260;6.030;2023-07-16T04:36:27;3.1;;;2.8;;
15498;SDS011;7851;52.260;6.030;2023-07-16T04:37:27;3.3;;;2.6;;
15498;SDS011;7851;52.260;6.030;2023-07-16T04:38:27;2.6;;;2.4;;
15498;SDS011;7851;52.260;6.030;2023-07-16T04:39:27;4.2;;;3;;
15498;SDS011;7851;52.260;6.030;2023-07-16T04:40:28;3.9;;;2.7;;
15498;SDS011;7851;52.260;6.030;2023-07-16T04:41:27;3.8;;;2.8;;
15498;SDS011;7851;52.260;6.030;2023-07-16T04:42:27;3;;;2.7;;
15498;SDS011;7851;52.260;6.030;2023-07-16T04:43:27;3.4;;;2.6;;
15498;SDS011;7851;52.260;6.030;2023-07-16T04:44:27;3;;;2.7;;
15498;SDS011;7851;52.260;6.030;2023-07-16T04:45:27;3;;;2.6;;
15498;SDS011;7851;52.260;6.030;2023-07-16T04:46:27;9.7;;;3.4;;
15498;SDS011;7851;52.260;6.030;2023-07-16T04:47:27;4.9;;;3;;
15498;SDS011;7851;52.260;6.030;2023-07-16T04:48:27;3;;;2.6;;
15498;SDS011;7851;52.260;6.030;2023-07-16T04:49:27;5.6;;;3.3;;
15498;SDS011;7851;52.260;6.030;2023-07-16T04:50:27;7;;;3.5;;
15498;SDS011;7851;52.260;6.030;2023-07-16T04:51:27;5.9;;;3.6;;
15498;SDS011;7851;52.260;6.030;2023-07-16T04:52:27;6.9;;;3.2;;
15498;SDS011;7851;52.260;6.030;2023-07-16T04:53:27;3.1;;;2.8;;
15498;SDS011;7851;52.260;6.030;2023-07-16T04:54:27;3.3;;;2.9;;
15498;SDS011;7851;52.260;6.030;2023-07-16T04:55:27;3.1;;;2.7;;
15498;SDS011;7851;52.260;6.030;2023-07-16T04:56:27;3.9;;;2.9;;
15498;SDS011;7851;52.260;6.030;2023-07-16T04:57:27;5.7;;;2.9;;
15498;SDS011;7851;52.260;6.030;2023-07-16T04:58:27;7.5;;;3.2;;
15498;SDS011;7851;52.260;6.030;2023-07-16T04:59:27;4.8;;;3.3;;
15498;SDS011;7851;52.260;6.030;2023-07-16T05:00:27;3.7;;;3.3;;
15498;SDS011;7851;52.260;6.030;2023-07-16T05:01:27;4.6;;;2.9;;
15498;SDS011;7851;52.260;6.030;2023-07-16T05:02:27;7;;;3.4;;
15498;SDS011;7851;52.260;6.030;2023-07-16T05:03:27;6.8;;;3;;
15498;SDS011;7851;52.260;6.030;2023-07-16T05:04:27;4.6;;;2.9;;
15498;SDS011;7851;52.260;6.030;2023-07-16T05:05:27;9.6;;;2.9;;
15498;SDS011;7851;52.260;6.030;2023-07-16T05:06:27;4.7;;;3.1;;
15498;SDS011;7851;52.260;6.030;2023-07-16T05:07:27;4.5;;;2.9;;
15498;SDS011;7851;52.260;6.030;2023-07-16T05:08:27;4;;;3.2;;
15498;SDS011;7851;52.260;6.030;2023-07-16T05:09:27;4;;;2.8;;
15498;SDS011;7851;52.260;6.030;2023-07-16T05:10:27;7.1;;;3.6;;
15498;SDS011;7851;52.260;6.030;2023-07-16T05:11:27;4.4;;;2.9;;
15498;SDS011;7851;52.260;6.030;2023-07-16T05:12:27;5.5;;;2.8;;
15498;SDS011;7851;52.260;6.030;2023-07-16T05:13:27;3.8;;;3;;
15498;SDS011;7851;52.260;6.030;2023-07-16T05:14:28;3;;;2.7;;
15498;SDS011;7851;52.260;6.030;2023-07-16T05:15:27;6.2;;;3.2;;
15498;SDS011;7851;52.260;6.030;2023-07-16T05:16:27;3.5;;;3.2;;
15498;SDS011;7851;52.260;6.030;2023-07-16T05:17:27;6.2;;;3.4;;
15498;SDS011;7851;52.260;6.030;2023-07-16T05:18:27;5.7;;;3.2;;
15498;SDS011;7851;52.260;6.030;2023-07-16T05:19:27;5.6;;;3;;
15498;SDS011;7851;52.260;6.030;2023-07-16T05:20:27;4;;;2.9;;
15498;SDS011;7851;52.260;6.030;2023-07-16T05:21:27;3.6;;;3;;
15498;SDS011;7851;52.260;6.030;2023-07-16T05:22:27;4.2;;;3;;
15498;SDS011;7851;52.260;6.030;2023-07-16T05:23:27;3.4;;;3.1;;
15498;SDS011;7851;52.260;6.030;2023-07-16T05:24:27;4.6;;;3.2;;
15498;SDS011;7851;52.260;6.030;2023-07-16T05:25:27;5.1;;;3.3;;
15498;SDS011;7851;52.260;6.030;2023-07-16T05:26:27;3.8;;;2.9;;
15498;SDS011;7851;52.260;6.030;2023-07-16T05:27:27;4.5;;;3.1;;
15498;SDS011;7851;52.260;6.030;2023-07-16T05:28:27;6.1;;;3.2;;
15498;SDS011;7851;52.260;6.030;2023-07-16T05:29:27;5.4;;;3.2;;
15498;SDS011;7851;52.260;6.030;2023-07-16T05:30:27;4.8;;;3.4;;
15498;SDS011;7851;52.260;6.030;2023-07-16T05:31:27;3.4;;;3.1;;
15498;SDS011;7851;52.260;6.030;2023-07-16T05:32:27;3.8;;;3;;
15498;SDS011;7851;52.260;6.030;2023-07-16T05:33:27;3.8;;;3.4;;
15498;SDS011;7851;52.260;6.030;2023-07-16T05:34:27;9.3;;;3.3;;
15498;SDS011;7851;52.260;6.030;2023-07-16T05:35:28;3.9;;;3.2;;
15498;SDS011;7851;52.260;6.030;2023-07-16T05:36:27;3.3;;;3;;
15498;SDS011;7851;52.260;6.030;2023-07-16T05:37:27;6.6;;;3.4;;
15498;SDS011;7851;52.260;6.030;2023-07-16T05:38:27;6.3;;;3.5;;
15498;SDS011;7851;52.260;6.030;2023-07-16T05:39:27;8.9;;;3.6;;
15498;SDS011;7851;52.260;6.030;2023-07-16T05:40:28;7.5;;;3.4;;
15498;SDS011;7851;52.260;6.030;2023-07-16T05:41:27;4.7;;;3;;
15498;SDS011;7851;52.260;6.030;2023-07-16T05:42:27;5.2;;;3.2;;
15498;SDS011;7851;52.260;6.030;2023-07-16T05:43:28;5;;;3.4;;
15498;SDS011;7851;52.260;6.030;2023-07-16T05:44:27;21.1;;;3.4;;
15498;SDS011;7851;52.260;6.030;2023-07-16T05:45:27;4.2;;;3.5;;
15498;SDS011;7851;52.260;6.030;2023-07-16T05:46:27;4;;;3.6;;
15498;SDS011;7851;52.260;6.030;2023-07-16T05:47:27;5;;;3.3;;
15498;SDS011;7851;52.260;6.030;2023-07-16T05:48:29;10;;;9;;
15498;SDS011;7851;52.260;6.030;2023-07-16T05:49:27;13.4;;;9.3;;
15498;SDS011;7851;52.260;6.030;2023-07-16T05:50:27;17.4;;;9.3;;
15498;SDS011;7851;52.260;6.030;2023-07-16T05:51:27;10;;;9;;
15498;SDS011;7851;52.260;6.030;2023-07-16T05:52:27;10.5;;;9.5;;
15498;SDS011;7851;52.260;6.030;2023-07-16T05:53:27;9.7;;;8.9;;
15498;SDS011;7851;52.260;6.030;2023-07-16T05:54:27;9.8;;;9;;
15498;SDS011;7851;52.260;6.030;2023-07-16T05:55:27;9.9;;;9;;
15498;SDS011;7851;52.260;6.030;2023-07-16T05:56:27;12.2;;;9.6;;
15498;SDS011;7851;52.260;6.030;2023-07-16T05:57:27;10;;;9.2;;
15498;SDS011;7851;52.260;6.030;2023-07-16T05:58:27;11;;;9.9;;
15498;SDS011;7851;52.260;6.030;2023-07-16T05:59:27;10.4;;;9.6;;
15498;SDS011;7851;52.260;6.030;2023-07-16T06:00:27;19.3;;;10;;
15498;SDS011;7851;52.260;6.030;2023-07-16T06:01:29;10.3;;;9.4;;
15498;SDS011;7851;52.260;6.030;2023-07-16T06:02:27;12.8;;;10.1;;
15498;SDS011;7851;52.260;6.030;2023-07-16T06:03:27;11.5;;;10.4;;
15498;SDS011;7851;52.260;6.030;2023-07-16T06:04:27;10.4;;;9.4;;
15498;SDS011;7851;52.260;6.030;2023-07-16T06:05:27;11.1;;;10.1;;
15498;SDS011;7851;52.260;6.030;2023-07-16T06:06:27;10.8;;;9.8;;
15498;SDS011;7851;52.260;6.030;2023-07-16T06:07:27;11.2;;;10.2;;
15498;SDS011;7851;52.260;6.030;2023-07-16T06:08:27;10.7;;;9.8;;
15498;SDS011;7851;52.260;6.030;2023-07-16T06:09:27;11;;;10.1;;
15498;SDS011;7851;52.260;6.030;2023-07-16T06:10:27;11.1;;;10.1;;
15498;SDS011;7851;52.260;6.030;2023-07-16T06:11:27;11.3;;;10.4;;
15498;SDS011;7851;52.260;6.030;2023-07-16T06:12:27;12.1;;;11;;
15498;SDS011;7851;52.260;6.030;2023-07-16T06:13:27;13.5;;;12.2;;
15498;SDS011;7851;52.260;6.030;2023-07-16T06:14:27;14.2;;;13.2;;
15498;SDS011;7851;52.260;6.030;2023-07-16T06:15:27;13.2;;;12.1;;
15498;SDS011;7851;52.260;6.030;2023-07-16T06:16:27;14.5;;;13.2;;
15498;SDS011;7851;52.260;6.030;2023-07-16T06:17:27;15.2;;;13.8;;
15498;SDS011;7851;52.260;6.030;2023-07-16T06:18:27;14.6;;;13.4;;
15498;SDS011;7851;52.260;6.030;2023-07-16T06:19:27;14.8;;;13.7;;
15498;SDS011;7851;52.260;6.030;2023-07-16T06:20:28;15.2;;;14;;
15498;SDS011;7851;52.260;6.030;2023-07-16T06:21:27;15;;;13.8;;
15498;SDS011;7851;52.260;6.030;2023-07-16T06:22:27;15.3;;;14;;
15498;SDS011;7851;52.260;6.030;2023-07-16T06:23:27;15;;;13.9;;